Time;durP1;ratioP1;P1;durP2;ratioP2;P2;SDS_P1;SDS_P2;PMS_P1;PMS_P2;Temp;Humidity;BMP_temperature;BMP_pressure;BME280_temperature;BME280_humidity;BME280_pressure;Samples;Min_cycle;Max_cycle;Signal;HPM_P1;HPM_P2
2023/10/11 00:01:02;;;;;;;18.95;12.07;;;;;;;20.24;81.67;101071.34;5057537;27;96731;-83
2023/10/11 00:03:34;;;;;;;16.17;11.85;;;;;;;20.20;81.79;101076.09;5057278;27;96824;-85
2023/10/11 00:06:04;;;;;;;18.33;11.60;;;;;;;20.07;82.13;101075.22;5055866;27;99136;-85
2023/10/11 00:08:39;;;;;;;20.55;12.07;;;;;;;20.16;81.83;101076.41;5053562;27;96739;-86
2023/10/11 00:11:08;;;;;;;25.23;11.07;;;;;;;20.08;81.79;101071.59;5052495;27;96708;-87
2023/10/11 00:13:37;;;;;;;15.40;11.88;;;;;;;20.10;81.93;101072.31;5054693;27;97234;-88
2023/10/11 00:16:08;;;;;;;23.85;11.68;;;;;;;20.22;81.51;101070.59;5052315;27;100146;-87
2023/10/11 00:18:40;;;;;;;19.50;11.23;;;;;;;20.12;82.05;101070.41;5050497;27;99058;-86
2023/10/11 00:21:11;;;;;;;20.92;11.00;;;;;;;20.06;81.83;101061.91;5055817;27;96838;-87
2023/10/11 00:23:41;;;;;;;18.35;10.75;;;;;;;20.10;81.93;101058.91;5052519;27;96768;-87
2023/10/11 00:26:08;;;;;;;18.60;10.88;;;;;;;19.95;82.15;101062.69;5049522;27;100077;-87
2023/10/11 00:28:38;;;;;;;21.42;11.48;;;;;;;19.99;82.25;101057.94;5051939;27;101331;-88
2023/10/11 00:31:07;;;;;;;16.48;10.70;;;;;;;19.83;82.56;101063.50;5056889;27;96872;-86
2023/10/11 00:33:33;;;;;;;28.75;11.05;;;;;;;19.83;82.19;101058.13;5054407;27;96732;-85
2023/10/11 00:36:03;;;;;;;20.00;11.02;;;;;;;19.80;82.38;101061.91;5055047;27;98253;-87
2023/10/11 00:38:32;;;;;;;16.45;9.73;;;;;;;19.97;81.11;101060.72;5045576;27;99145;-87
2023/10/11 00:41:07;;;;;;;15.40;10.07;;;;;;;19.86;82.03;101066.00;5049016;27;96887;-87
2023/10/11 00:43:39;;;;;;;15.88;9.85;;;;;;;19.77;81.85;101053.19;5049668;27;96868;-88
2023/10/11 00:46:08;;;;;;;15.75;10.35;;;;;;;20.03;81.06;101051.38;5046073;27;98175;-87
2023/10/11 00:48:36;;;;;;;17.15;9.27;;;;;;;19.89;80.79;101047.84;5058633;27;97730;-86
2023/10/11 00:51:06;;;;;;;15.20;8.77;;;;;;;19.87;80.84;101048.94;5057450;27;96788;-87
2023/10/11 00:53:34;;;;;;;18.85;9.65;;;;;;;20.02;80.35;101055.06;5055508;27;96833;-87
2023/10/11 00:56:04;;;;;;;17.33;9.23;;;;;;;19.94;81.03;101050.22;5054330;27;100121;-87
2023/10/11 00:58:33;;;;;;;20.98;10.15;;;;;;;19.97;80.27;101036.59;5052326;27;97859;-87
2023/10/11 01:01:03;;;;;;;13.73;9.02;;;;;;;20.00;79.89;101035.53;5051145;27;97359;-87
2023/10/11 01:03:33;;;;;;;15.50;9.30;;;;;;;20.07;79.24;101031.44;5054281;27;96823;-81
2023/10/11 01:06:00;;;;;;;11.57;8.30;;;;;;;19.93;79.61;101024.38;5045337;27;100251;-80
2023/10/11 01:08:27;;;;;;;16.33;8.88;;;;;;;19.77;80.11;101021.03;5050505;27;100712;-80
2023/10/11 01:10:54;;;;;;;15.85;7.80;;;;;;;19.88;79.42;101026.53;5048642;27;96782;-79
2023/10/11 01:13:21;;;;;;;16.80;8.38;;;;;;;19.84;79.42;101030.38;5050739;27;96850;-80
2023/10/11 01:15:47;;;;;;;16.10;8.32;;;;;;;19.82;79.95;101032.31;5053123;27;102578;-78
2023/10/11 01:18:15;;;;;;;14.90;8.45;;;;;;;19.91;78.73;101020.94;5046536;27;101122;-78
2023/10/11 01:20:43;;;;;;;11.63;8.23;;;;;;;19.81;79.26;101023.41;5044983;27;96792;-78
2023/10/11 01:23:09;;;;;;;16.70;7.68;;;;;;;19.83;79.07;101025.97;5043622;27;96805;-79
2023/10/11 01:25:35;;;;;;;16.88;7.90;;;;;;;19.94;78.67;101018.03;5047985;27;99410;-77
2023/10/11 01:28:02;;;;;;;17.73;8.73;;;;;;;19.80;78.77;101023.50;5047433;27;97828;-78
2023/10/11 01:30:28;;;;;;;22.55;8.48;;;;;;;19.73;79.24;101011.50;5046544;27;98136;-77
2023/10/11 01:32:55;;;;;;;15.00;8.43;;;;;;;19.76;79.08;101017.50;5050304;27;97110;-77
2023/10/11 01:35:22;;;;;;;17.35;8.02;;;;;;;19.73;78.79;101016.84;5042844;27;100995;-77
2023/10/11 01:37:55;;;;;;;21.58;7.68;;;;;;;19.66;79.19;101015.56;5051179;27;99019;-76
2023/10/11 01:40:21;;;;;;;19.85;7.35;;;;;;;19.55;79.35;100997.53;5041720;27;97407;-77
2023/10/11 01:42:49;;;;;;;13.88;7.10;;;;;;;19.67;78.98;100995.84;5051078;27;99185;-76
2023/10/11 01:45:17;;;;;;;18.58;7.88;;;;;;;19.72;78.66;100996.38;5043899;27;99725;-76
2023/10/11 01:47:46;;;;;;;17.58;7.22;;;;;;;19.71;78.31;100989.28;5051870;27;98886;-77
2023/10/11 01:50:12;;;;;;;12.85;7.35;;;;;;;19.76;77.73;100985.31;5049754;27;97066;-77
2023/10/11 01:52:39;;;;;;;11.95;7.50;;;;;;;19.80;77.91;100986.84;5047463;27;96867;-77
2023/10/11 01:55:10;;;;;;;11.77;6.50;;;;;;;19.71;77.16;100986.59;5049151;27;98854;-77
2023/10/11 01:57:38;;;;;;;11.38;7.13;;;;;;;19.74;77.38;100984.59;5050105;27;102109;-77
2023/10/11 02:00:13;;;;;;;14.30;6.63;;;;;;;19.69;78.07;100983.19;5048911;27;98440;-77
2023/10/11 02:02:44;;;;;;;12.10;7.22;;;;;;;19.42;78.73;100975.19;5044648;27;97778;-77
2023/10/11 02:05:12;;;;;;;12.10;6.82;;;;;;;19.61;77.95;100981.03;5046525;27;97759;-77
2023/10/11 02:07:39;;;;;;;16.48;7.30;;;;;;;19.64;77.85;100979.94;5051882;27;99172;-77
2023/10/11 02:10:11;;;;;;;15.82;6.75;;;;;;;19.59;77.79;100979.41;5047363;27;97195;-75
2023/10/11 02:12:38;;;;;;;13.40;6.90;;;;;;;19.54;77.93;100976.19;5042294;27;96880;-75
2023/10/11 02:15:07;;;;;;;15.73;7.63;;;;;;;19.48;77.96;100974.81;5049243;27;99157;-75
2023/10/11 02:17:37;;;;;;;14.55;7.57;;;;;;;19.52;77.91;100964.72;5039764;27;102086;-76
2023/10/11 02:20:06;;;;;;;13.10;6.72;;;;;;;19.44;78.01;100966.06;5047769;27;96995;-77
2023/10/11 02:22:33;;;;;;;11.93;7.00;;;;;;;19.53;77.44;100961.09;5050548;27;96917;-76
2023/10/11 02:25:00;;;;;;;17.67;6.57;;;;;;;19.37;78.26;100963.91;5048811;27;99360;-77
2023/10/11 02:27:32;;;;;;;15.25;6.75;;;;;;;19.54;77.45;100968.16;5045424;27;98820;-77
2023/10/11 02:30:01;;;;;;;16.48;7.03;;;;;;;19.43;77.76;100966.16;5047151;27;96850;-77
2023/10/11 02:32:33;;;;;;;15.50;6.95;;;;;;;19.45;77.52;100967.78;5046350;27;96905;-77
2023/10/11 02:35:06;;;;;;;15.07;7.10;;;;;;;19.46;77.07;100955.28;5052150;27;99087;-78
2023/10/11 02:37:36;;;;;;;17.55;7.05;;;;;;;19.44;77.14;100952.66;5048849;27;101789;-77
2023/10/11 02:40:07;;;;;;;19.25;6.68;;;;;;;19.32;77.32;100945.47;5044958;27;96791;-77
2023/10/11 02:42:36;;;;;;;12.73;6.53;;;;;;;19.31;77.36;100943.75;5046649;27;96832;-78
2023/10/11 02:45:07;;;;;;;14.57;6.72;;;;;;;19.24;77.36;100931.75;5051097;27;97999;-77
2023/10/11 02:47:35;;;;;;;13.07;7.00;;;;;;;19.25;77.32;100941.50;5047564;27;101042;-77
2023/10/11 02:50:05;;;;;;;15.35;7.38;;;;;;;19.26;77.18;100940.53;5045722;27;96865;-77
2023/10/11 02:52:35;;;;;;;12.45;6.95;;;;;;;19.29;76.97;100932.31;5046940;27;97359;-77
2023/10/11 02:55:12;;;;;;;15.40;6.97;;;;;;;19.36;77.03;100932.75;5048739;27;99946;-78
2023/10/11 02:57:41;;;;;;;14.20;7.38;;;;;;;19.25;76.90;100919.22;5043484;27;98857;-78
2023/10/11 03:00:21;;;;;;;13.38;7.05;;;;;;;19.21;77.42;100913.22;5047158;27;96902;-78
2023/10/11 03:02:53;;;;;;;14.18;6.38;;;;;;;19.18;77.10;100902.69;5049165;27;96762;-78
2023/10/11 03:05:20;;;;;;;14.98;7.38;;;;;;;19.14;77.03;100901.22;5043439;27;102086;-77
2023/10/11 03:07:47;;;;;;;13.50;7.32;;;;;;;19.06;77.42;100901.72;5050383;27;99034;-78
2023/10/11 03:10:15;;;;;;;23.20;7.70;;;;;;;19.11;77.41;100912.13;5045872;27;96720;-77
2023/10/11 03:12:44;;;;;;;15.20;6.75;;;;;;;19.04;77.47;100908.13;5050913;27;96781;-77
2023/10/11 03:15:12;;;;;;;18.48;7.68;;;;;;;19.12;77.12;100903.13;5044881;27;99182;-77
2023/10/11 03:17:41;;;;;;;16.17;6.97;;;;;;;19.17;77.15;100900.13;5047257;27;99648;-77
2023/10/11 03:20:24;;;;;;;18.73;7.30;;;;;;;19.02;77.66;100897.56;5047262;27;96873;-77
2023/10/11 03:22:51;;;;;;;16.95;6.68;;;;;;;19.09;76.84;100896.19;5041583;27;96731;-77
2023/10/11 03:25:19;;;;;;;17.58;7.35;;;;;;;18.91;77.93;100892.06;5046844;27;98596;-77
2023/10/11 03:27:49;;;;;;;13.52;7.45;;;;;;;19.07;77.44;100895.41;5048433;27;98240;-77
2023/10/11 03:30:21;;;;;;;13.65;7.53;;;;;;;18.93;77.62;100892.81;5043130;27;96695;-77
2023/10/11 03:32:49;;;;;;;12.15;7.22;;;;;;;18.97;77.04;100898.84;5044538;27;100991;-78
2023/10/11 03:35:18;;;;;;;14.05;7.65;;;;;;;18.98;77.22;100885.31;5047396;27;101396;-77
2023/10/11 03:37:57;;;;;;;14.85;7.25;;;;;;;18.85;77.85;100891.59;5044091;27;98140;-78
2023/10/11 03:40:34;;;;;;;17.23;7.30;;;;;;;18.87;77.18;100885.19;5049905;27;96680;-78
2023/10/11 03:43:03;;;;;;;15.75;7.60;;;;;;;18.68;78.14;100882.91;5046753;27;96987;-77
2023/10/11 03:45:34;;;;;;;15.57;6.28;;;;;;;18.68;78.20;100876.69;5048519;27;99753;-78
2023/10/11 03:48:09;;;;;;;13.45;7.15;;;;;;;18.69;78.03;100873.91;5046781;27;99321;-78
2023/10/11 03:50:47;;;;;;;11.50;6.60;;;;;;;18.73;77.61;100871.03;5050161;27;97511;-77
2023/10/11 03:53:14;;;;;;;11.95;6.45;;;;;;;18.75;77.20;100866.44;5045722;27;96771;-77
2023/10/11 03:55:45;;;;;;;15.80;6.95;;;;;;;18.82;76.89;100868.59;5046854;27;97613;-77
2023/10/11 03:58:28;;;;;;;13.23;6.70;;;;;;;18.54;77.68;100860.66;5044608;27;101076;-77
2023/10/11 04:01:01;;;;;;;12.95;6.18;;;;;;;18.67;77.20;100864.28;5049654;27;97427;-76
2023/10/11 04:03:27;;;;;;;15.35;7.13;;;;;;;18.68;76.92;100864.16;5048011;27;97159;-77
2023/10/11 04:05:58;;;;;;;20.65;8.10;;;;;;;18.85;76.14;100868.38;5051285;27;99499;-77
2023/10/11 04:08:27;;;;;;;16.27;6.85;;;;;;;18.76;76.32;100868.16;5047544;27;98839;-77
2023/10/11 04:10:54;;;;;;;12.57;6.72;;;;;;;18.78;76.09;100861.72;5050232;27;96780;-76
2023/10/11 04:13:26;;;;;;;15.98;7.25;;;;;;;18.90;75.47;100865.41;5050307;27;96963;-76
2023/10/11 04:15:55;;;;;;;15.02;6.55;;;;;;;18.73;76.03;100873.69;5049997;27;101333;-79
2023/10/11 04:18:33;;;;;;;12.02;7.03;;;;;;;18.80;75.86;100867.84;5047773;27;98833;-78
2023/10/11 04:21:14;;;;;;;15.25;5.88;;;;;;;18.78;75.98;100860.84;5040735;27;96715;-78
2023/10/11 04:23:45;;;;;;;14.55;6.88;;;;;;;18.82;75.46;100868.59;5052825;27;97032;-80
2023/10/11 04:26:25;;;;;;;16.70;7.40;;;;;;;18.97;75.15;100872.06;5051098;27;100832;-81
2023/10/11 04:28:52;;;;;;;15.20;6.65;;;;;;;18.85;74.92;100859.47;5051810;27;98600;-81
2023/10/11 04:31:30;;;;;;;16.05;6.78;;;;;;;18.77;75.23;100865.38;5056511;27;96760;-80
2023/10/11 04:33:59;;;;;;;16.80;7.07;;;;;;;18.74;75.49;100862.91;5061001;27;96775;-79
2023/10/11 04:36:28;;;;;;;12.60;6.65;;;;;;;18.84;75.40;100868.50;5055194;27;102080;-80
2023/10/11 04:39:03;;;;;;;14.00;6.72;;;;;;;18.80;75.23;100857.13;5057665;27;100549;-80
2023/10/11 04:41:37;;;;;;;16.05;6.78;;;;;;;18.90;74.86;100852.00;5054543;27;96899;-81
2023/10/11 04:44:12;;;;;;;10.98;6.07;;;;;;;18.88;74.54;100860.16;5051401;27;97181;-81
2023/10/11 04:46:39;;;;;;;15.87;6.20;;;;;;;18.90;74.46;100854.69;5050465;27;100163;-81
2023/10/11 04:49:18;;;;;;;25.38;10.48;;;;;;;18.84;74.88;100857.78;5049382;27;98735;-81
2023/10/11 04:51:46;;;;;;;13.35;5.97;;;;;;;18.95;73.96;100853.41;5047576;27;96883;-81
2023/10/11 04:54:18;;;;;;;13.98;6.68;;;;;;;18.86;74.38;100855.84;5048384;27;96850;-80
2023/10/11 04:56:55;;;;;;;13.65;6.38;;;;;;;18.93;73.60;100866.03;5050273;27;99314;-80
2023/10/11 04:59:27;;;;;;;12.57;6.40;;;;;;;18.79;74.01;100854.53;5050216;27;98762;-79
2023/10/11 05:02:04;;;;;;;16.25;7.10;;;;;;;18.91;73.63;100856.38;5048228;27;97532;-78
2023/10/11 05:04:33;;;;;;;18.05;7.20;;;;;;;18.93;73.21;100859.81;5048078;27;96792;-78
2023/10/11 05:07:04;;;;;;;15.90;6.35;;;;;;;18.83;73.68;100856.06;5047163;27;97837;-79
2023/10/11 05:09:37;;;;;;;15.00;6.40;;;;;;;18.82;73.42;100860.56;5049425;27;98617;-79
2023/10/11 05:12:19;;;;;;;14.00;5.88;;;;;;;18.74;73.75;100854.88;5049920;27;96864;-81
2023/10/11 05:15:01;;;;;;;19.35;6.03;;;;;;;18.99;72.80;100857.59;5058730;27;97240;-80
2023/10/11 05:17:38;;;;;;;12.38;6.15;;;;;;;18.91;72.74;100853.72;5058203;27;99414;-80
2023/10/11 05:22:52;;;;;;;11.73;5.88;;;;;;;18.95;72.25;100852.56;5045540;27;96867;-78
2023/10/11 05:28:07;;;;;;;16.98;6.40;;;;;;;18.85;72.65;100854.13;5042298;27;98678;-79
2023/10/11 05:30:34;;;;;;;13.57;6.35;;;;;;;18.87;72.30;100844.19;5051310;27;97793;-78
2023/10/11 05:33:15;;;;;;;12.63;5.70;;;;;;;18.91;72.34;100851.88;5047611;27;96886;-77
2023/10/11 05:36:13;;;;;;;16.42;5.90;;;;;;;18.93;72.19;100854.47;5052216;27;97488;-78
2023/10/11 05:52:25;;;;;;;11.60;5.88;;;;;;;18.96;71.13;100848.91;5055753;27;97064;-80
2023/10/11 05:54:52;;;;;;;16.30;6.32;;;;;;;19.04;70.80;100852.75;5055813;27;96764;-80
2023/10/11 05:57:19;;;;;;;14.15;5.25;;;;;;;18.87;71.35;100852.22;5053593;27;97111;-80
2023/10/11 05:59:47;;;;;;;14.13;5.90;;;;;;;19.02;70.77;100854.72;5045639;27;99611;-80
2023/10/11 06:02:18;;;;;;;14.88;6.35;;;;;;;19.02;71.02;100852.03;5050067;27;98823;-73
2023/10/11 06:04:45;;;;;;;13.88;6.35;;;;;;;19.14;70.33;100847.63;5047468;27;96861;-79
2023/10/11 06:07:15;;;;;;;15.05;6.10;;;;;;;19.28;69.47;100831.47;5047627;27;97433;-79
2023/10/11 06:09:45;;;;;;;14.23;5.97;;;;;;;19.28;69.26;100839.50;5042354;27;101307;-77
2023/10/11 06:12:23;;;;;;;17.00;6.10;;;;;;;19.32;69.07;100832.09;5047705;27;99412;-78
2023/10/11 06:14:50;;;;;;;14.60;6.20;;;;;;;19.24;69.26;100837.13;5045246;27;96880;-78
2023/10/11 06:17:21;;;;;;;19.00;6.30;;;;;;;19.44;68.26;100834.75;5049544;27;97107;-78
2023/10/11 06:19:53;;;;;;;14.07;6.30;;;;;;;19.32;68.29;100832.09;5048093;27;99275;-78
2023/10/11 06:22:21;;;;;;;13.15;5.90;;;;;;;19.23;68.93;100830.09;5042820;27;99479;-77
2023/10/11 06:24:49;;;;;;;21.33;6.45;;;;;;;19.38;68.23;100828.97;5040042;27;97187;-77
2023/10/11 06:30:05;;;;;;;11.88;5.20;;;;;;;19.68;66.63;100836.72;5040708;27;97113;-78
2023/10/11 06:32:35;;;;;;;14.65;6.20;;;;;;;19.86;65.71;100836.22;5043779;27;99288;-78
2023/10/11 06:35:05;;;;;;;12.80;5.93;;;;;;;19.77;65.89;100836.88;5043246;27;97665;-78
2023/10/11 06:37:34;;;;;;;11.38;5.85;;;;;;;19.74;65.82;100838.94;5049389;27;97251;-76
2023/10/11 06:40:13;;;;;;;11.80;4.90;;;;;;;19.84;66.04;100848.88;5049279;27;99648;-76
2023/10/11 06:42:40;;;;;;;13.52;5.72;;;;;;;19.92;65.73;100839.44;5045260;27;99547;-76
2023/10/11 06:45:16;;;;;;;11.48;5.72;;;;;;;20.11;64.71;100845.16;5049293;27;96897;-78
2023/10/11 06:47:49;;;;;;;17.92;5.57;;;;;;;20.42;63.34;100849.13;5043471;27;96881;-77
2023/10/11 06:50:24;;;;;;;9.52;5.72;;;;;;;20.44;63.25;100842.69;5044568;27;99485;-78
2023/10/11 06:52:50;;;;;;;12.68;5.50;;;;;;;20.41;63.14;100842.06;5048017;27;99000;-78
2023/10/11 06:55:22;;;;;;;9.70;5.00;;;;;;;20.49;62.62;100842.34;5046343;27;97187;-77
2023/10/11 06:57:51;;;;;;;15.73;5.57;;;;;;;20.32;63.49;100842.72;5045380;27;96849;-77
2023/10/11 07:00:23;;;;;;;14.60;6.03;;;;;;;20.64;62.02;100849.25;5044415;27;101054;-77
2023/10/11 07:02:52;;;;;;;15.88;5.70;;;;;;;20.75;61.82;100846.59;5048248;27;98840;-77
2023/10/11 07:05:20;;;;;;;17.17;5.32;;;;;;;20.95;61.39;100851.28;5048359;27;97219;-78
2023/10/11 07:07:48;;;;;;;13.25;5.15;;;;;;;20.99;60.60;100852.78;5046801;27;97016;-78
2023/10/11 07:10:28;;;;;;;9.07;5.32;;;;;;;21.00;60.35;100851.78;5045236;27;98978;-77
2023/10/11 07:13:03;;;;;;;10.70;5.80;;;;;;;21.19;60.32;100845.03;5042894;27;99064;-77
2023/10/11 07:15:37;;;;;;;11.38;4.78;;;;;;;21.37;59.54;100847.13;5035747;27;97702;-77
2023/10/11 07:18:08;;;;;;;18.05;5.38;;;;;;;21.35;59.89;100842.84;5048253;27;96867;-75
2023/10/11 07:20:47;;;;;;;11.13;4.80;;;;;;;21.61;58.44;100841.63;5039691;27;99441;-77
2023/10/11 07:23:18;;;;;;;15.50;4.80;;;;;;;21.69;58.20;100844.56;5042406;27;98911;-77
2023/10/11 07:25:45;;;;;;;12.82;5.20;;;;;;;21.58;58.45;100841.03;5046518;27;97216;-77
2023/10/11 07:28:14;;;;;;;12.55;4.95;;;;;;;21.81;57.84;100835.50;5038323;27;99964;-77
2023/10/11 07:30:40;;;;;;;14.63;5.07;;;;;;;21.84;57.72;100845.19;5044402;27;99231;-77
2023/10/11 07:33:11;;;;;;;17.73;5.35;;;;;;;21.84;57.38;100846.03;5047476;27;98887;-78
2023/10/11 07:35:46;;;;;;;13.10;5.35;;;;;;;22.06;57.17;100847.00;5042793;27;96781;-77
2023/10/11 07:38:14;;;;;;;11.13;5.57;;;;;;;22.09;57.10;100847.63;5041692;27;98168;-78
2023/10/11 07:40:46;;;;;;;15.60;5.43;;;;;;;21.87;57.59;100850.28;5048888;27;98903;-77
2023/10/11 07:43:15;;;;;;;9.10;4.55;;;;;;;22.31;56.49;100845.84;5046827;27;99086;-77
2023/10/11 07:45:47;;;;;;;10.75;4.97;;;;;;;22.07;56.90;100840.63;5046035;27;97025;-77
2023/10/11 07:48:16;;;;;;;14.32;4.85;;;;;;;22.35;56.44;100831.16;5044014;27;97083;-77
2023/10/11 07:50:42;;;;;;;17.60;4.93;;;;;;;22.44;55.87;100825.00;5043908;27;99247;-77
2023/10/11 07:53:13;;;;;;;23.60;5.50;;;;;;;22.62;55.78;100840.47;5045638;27;101487;-79
2023/10/11 07:55:40;;;;;;;12.18;5.40;;;;;;;22.65;55.68;100824.03;5048000;27;97116;-77
2023/10/11 07:58:08;;;;;;;14.27;5.57;;;;;;;22.65;55.40;100820.47;5049926;27;98516;-78
2023/10/11 08:00:41;;;;;;;11.05;4.80;;;;;;;22.73;55.14;100818.03;5050621;27;101581;-78
2023/10/11 08:03:08;;;;;;;15.98;5.25;;;;;;;22.53;55.07;100819.69;5045863;27;101365;-77
2023/10/11 08:05:44;;;;;;;11.25;5.03;;;;;;;22.81;55.03;100833.56;5049525;27;96786;-77
2023/10/11 08:08:13;;;;;;;16.92;5.30;;;;;;;22.90;54.68;100824.69;5047635;27;97219;-77
2023/10/11 08:10:44;;;;;;;16.00;5.13;;;;;;;23.03;54.15;100828.03;5040865;27;98344;-76
2023/10/11 08:13:23;;;;;;;12.63;4.95;;;;;;;23.16;53.93;100817.06;5047993;27;99690;-77
2023/10/11 08:15:51;;;;;;;13.38;5.20;;;;;;;22.98;54.17;100812.25;5043760;27;97360;-76
2023/10/11 08:18:18;;;;;;;12.55;4.97;;;;;;;23.12;53.68;100815.59;5044037;27;97109;-77
2023/10/11 08:20:46;;;;;;;11.25;4.47;;;;;;;23.15;53.71;100812.66;5042169;27;99140;-77
2023/10/11 08:23:27;;;;;;;12.98;5.30;;;;;;;23.20;53.62;100816.66;5051715;27;99034;-77
2023/10/11 08:25:53;;;;;;;16.83;5.25;;;;;;;23.27;53.57;100811.56;5043556;27;96808;-78
2023/10/11 08:28:28;;;;;;;9.45;4.65;;;;;;;23.50;53.12;100815.81;5050738;27;98509;-78
2023/10/11 08:30:57;;;;;;;16.77;5.03;;;;;;;23.80;52.15;100814.94;5042561;27;99058;-77
2023/10/11 08:33:23;;;;;;;19.27;4.90;;;;;;;23.91;51.82;100814.81;5048511;27;99135;-78
2023/10/11 08:35:53;;;;;;;14.18;4.75;;;;;;;24.03;51.04;100824.50;5045561;27;98164;-77
2023/10/11 08:38:19;;;;;;;12.52;5.22;;;;;;;23.88;51.22;100809.72;5042303;27;97128;-77
2023/10/11 08:40:50;;;;;;;11.88;4.72;;;;;;;23.86;51.13;100809.00;5047182;27;99314;-77
2023/10/11 08:43:17;;;;;;;13.27;4.45;;;;;;;24.02;51.21;100814.72;5047180;27;101713;-77
2023/10/11 08:45:49;;;;;;;17.20;5.18;;;;;;;23.94;50.38;100835.28;5044014;27;96892;-78
2023/10/11 08:48:16;;;;;;;9.93;4.70;;;;;;;24.05;50.44;100824.38;5044935;27;97722;-77
2023/10/11 08:50:51;;;;;;;10.18;5.10;;;;;;;24.23;50.77;100826.28;5047447;27;98589;-77
2023/10/11 08:53:21;;;;;;;10.07;4.40;;;;;;;24.30;49.99;100821.19;5051142;27;99238;-78
2023/10/11 08:55:54;;;;;;;9.02;4.40;;;;;;;24.16;50.09;100816.16;5043421;27;97020;-78
2023/10/11 08:58:27;;;;;;;11.27;4.70;;;;;;;24.24;49.52;100821.75;5049992;27;97947;-77
2023/10/11 09:00:55;;;;;;;15.02;4.50;;;;;;;24.20;49.89;100812.22;5048390;27;99259;-76
2023/10/11 09:03:23;;;;;;;15.20;4.43;;;;;;;24.16;49.55;100819.69;5047094;27;99520;-77
2023/10/11 09:05:58;;;;;;;13.35;4.75;;;;;;;24.30;49.76;100806.81;5044933;27;96738;-77
2023/10/11 09:08:31;;;;;;;7.55;4.53;;;;;;;24.14;49.43;100810.06;5049955;27;98276;-77
2023/10/11 09:11:11;;;;;;;11.00;4.82;;;;;;;24.07;50.12;100809.75;5045275;27;99422;-78
2023/10/11 09:13:37;;;;;;;12.68;4.47;;;;;;;24.25;50.18;100806.41;5041900;27;99341;-78
2023/10/11 09:16:12;;;;;;;11.40;4.45;;;;;;;24.59;49.55;100807.69;5047191;27;97223;-78
2023/10/11 09:18:38;;;;;;;16.30;4.70;;;;;;;24.69;48.43;100808.53;5044710;27;97436;-77
2023/10/11 09:21:15;;;;;;;16.13;4.35;;;;;;;24.63;48.07;100807.25;5044224;27;101645;-77
2023/10/11 09:23:46;;;;;;;11.05;4.38;;;;;;;24.61;47.99;100816.53;5049463;27;99262;-76
2023/10/11 09:26:20;;;;;;;10.35;4.13;;;;;;;24.69;48.33;100822.03;5032298;27;96875;-76
2023/10/11 09:28:56;;;;;;;7.10;4.00;;;;;;;24.32;48.52;100824.59;5046403;27;97151;-77
2023/10/11 09:31:23;;;;;;;12.32;4.43;;;;;;;24.15;49.58;100830.66;5046323;27;99570;-77
2023/10/11 09:33:52;;;;;;;15.13;6.03;;;;;;;24.52;49.18;100831.72;5039895;27;99541;-77
2023/10/11 09:36:20;;;;;;;11.63;4.50;;;;;;;24.55;48.10;100823.31;5040272;27;98761;-77
2023/10/11 09:38:54;;;;;;;11.38;4.30;;;;;;;24.44;49.04;100814.50;5042351;27;97779;-76
2023/10/11 09:41:24;;;;;;;11.80;4.45;;;;;;;24.58;48.99;100808.69;5045766;27;102113;-76
2023/10/11 09:43:55;;;;;;;10.50;3.95;;;;;;;24.79;47.71;100812.09;5047582;27;99335;-76
2023/10/11 09:46:23;;;;;;;14.95;4.63;;;;;;;24.62;47.24;100820.91;5041788;27;97265;-77
2023/10/11 09:48:49;;;;;;;8.70;3.58;;;;;;;24.53;48.03;100806.44;5044410;27;97626;-75
2023/10/11 09:51:17;;;;;;;7.40;4.20;;;;;;;24.56;47.62;100811.53;5040445;27;98961;-77
2023/10/11 09:53:49;;;;;;;10.32;4.10;;;;;;;24.39;48.04;100814.09;5046550;27;99445;-77
2023/10/11 09:56:30;;;;;;;8.38;4.18;;;;;;;24.70;48.21;100807.53;5038926;27;97545;-77
2023/10/11 09:59:05;;;;;;;18.10;4.22;;;;;;;24.63;46.72;100801.00;5046058;27;97444;-77
2023/10/11 10:01:38;;;;;;;10.65;4.32;;;;;;;24.66;47.19;100800.72;5039696;27;98387;-76
2023/10/11 10:04:06;;;;;;;11.18;4.40;;;;;;;24.99;47.30;100811.09;5039730;27;98031;-77
2023/10/11 10:06:33;;;;;;;10.73;4.32;;;;;;;25.11;45.90;100806.38;5048094;27;96724;-76
2023/10/11 10:09:22;;;;;;;11.07;4.25;;;;;;;25.09;45.71;100793.97;5044771;27;96955;-76
2023/10/11 10:12:21;;;;;;;11.32;3.85;;;;;;;25.33;45.43;100805.19;5040999;27;97642;-78
2023/10/11 10:15:01;;;;;;;9.52;3.75;;;;;;;25.35;45.79;100808.56;5045444;27;100831;-77
2023/10/11 10:17:28;;;;;;;13.18;4.45;;;;;;;25.52;45.35;100813.22;5046755;27;97965;-77
2023/10/11 10:20:00;;;;;;;12.70;3.95;;;;;;;25.46;44.94;100813.81;5044437;27;96805;-76
2023/10/11 10:22:31;;;;;;;11.20;4.25;;;;;;;25.32;45.88;100808.88;5044564;27;99105;-76
2023/10/11 10:25:18;;;;;;;12.30;4.47;;;;;;;25.35;45.79;100805.84;5045600;27;99272;-77
2023/10/11 10:27:46;;;;;;;13.73;4.22;;;;;;;25.25;46.32;100811.31;5043941;27;97407;-77
2023/10/11 10:30:17;;;;;;;10.05;4.05;;;;;;;25.35;45.67;100814.81;5045346;27;97411;-76
2023/10/11 10:33:21;;;;;;;11.30;3.95;;;;;;;25.47;45.16;100801.97;5045178;27;100608;-74
2023/10/11 10:35:48;;;;;;;25.45;4.15;;;;;;;25.49;44.40;100789.16;5047184;27;98633;-76
2023/10/11 10:38:15;;;;;;;11.38;4.25;;;;;;;25.35;44.69;100797.75;5049269;27;97174;-76
2023/10/11 10:40:45;;;;;;;16.98;4.03;;;;;;;25.15;44.71;100805.06;5043860;27;98282;-76
2023/10/11 10:43:24;;;;;;;11.45;3.80;;;;;;;25.27;44.37;100789.53;5040989;27;98554;-76
2023/10/11 10:45:52;;;;;;;12.50;4.32;;;;;;;25.26;44.79;100790.53;5040203;27;98911;-76
2023/10/11 10:48:19;;;;;;;12.65;3.70;;;;;;;25.09;45.10;100783.16;5045294;27;97567;-77
2023/10/11 10:50:50;;;;;;;11.40;4.47;;;;;;;25.53;45.12;100793.28;5043159;27;96892;-76
2023/10/11 10:53:16;;;;;;;8.40;3.80;;;;;;;25.64;44.53;100787.69;5048922;27;99154;-76
2023/10/11 10:55:43;;;;;;;11.50;4.60;;;;;;;25.62;44.33;100800.50;5042344;27;99267;-76
2023/10/11 10:58:16;;;;;;;12.38;4.35;;;;;;;25.72;44.15;100790.50;5045367;27;97266;-76
2023/10/11 11:00:43;;;;;;;9.95;3.80;;;;;;;25.90;43.89;100793.25;5042819;27;97901;-76
2023/10/11 11:03:19;;;;;;;7.38;3.85;;;;;;;26.08;43.00;100790.56;5041975;27;100050;-75
2023/10/11 11:05:56;;;;;;;;;;;;;;;25.95;43.15;100779.25;5045986;27;99855;-76
2023/10/11 11:08:25;;;;;;;10.23;3.90;;;;;;;25.96;43.16;100776.38;5044813;27;97537;-76
2023/10/11 11:10:55;;;;;;;13.73;3.95;;;;;;;25.72;43.08;100776.13;5044940;27;96869;-76
2023/10/11 11:13:22;;;;;;;13.63;4.13;;;;;;;25.80;44.88;100768.94;5040954;27;99194;-77
2023/10/11 11:15:55;;;;;;;11.68;4.25;;;;;;;25.85;43.43;100771.19;5044977;27;99195;-77
2023/10/11 11:18:33;;;;;;;12.30;4.28;;;;;;;25.83;43.00;100769.63;5043076;27;96824;-77
2023/10/11 11:21:17;;;;;;;9.80;4.57;;;;;;;25.68;43.47;100759.31;5045393;27;98079;-77
2023/10/11 11:23:44;;;;;;;11.63;4.22;;;;;;;26.10;43.13;100750.66;5047312;27;101648;-77
2023/10/11 11:26:15;;;;;;;6.53;3.55;;;;;;;25.91;42.53;100764.31;5037142;27;99289;-77
2023/10/11 11:28:43;;;;;;;9.73;3.63;;;;;;;25.75;43.45;100757.72;5046494;27;97843;-77
2023/10/11 11:31:20;;;;;;;8.50;3.90;;;;;;;26.12;43.31;100748.66;5047101;27;99373;-76
2023/10/11 11:33:48;;;;;;;11.35;3.90;;;;;;;26.07;42.84;100745.53;5047668;27;99100;-76
2023/10/11 11:36:30;;;;;;;11.13;4.40;;;;;;;25.98;43.05;100746.47;5042094;27;101336;-77
2023/10/11 11:38:56;;;;;;;11.05;4.47;;;;;;;26.06;42.78;100741.09;5047625;27;96857;-77
2023/10/11 11:41:22;;;;;;;13.60;3.83;;;;;;;25.84;42.57;100742.44;5049886;27;97216;-76
2023/10/11 11:43:50;;;;;;;10.50;3.28;;;;;;;26.18;42.59;100731.78;5050049;27;101772;-77
2023/10/11 11:46:17;;;;;;;9.38;3.83;;;;;;;26.32;42.75;100733.94;5040937;27;100147;-77
2023/10/11 11:48:43;;;;;;;8.20;3.92;;;;;;;26.49;42.22;100741.22;5044174;27;96778;-77
2023/10/11 11:51:13;;;;;;;7.63;4.00;;;;;;;26.27;41.49;100724.59;5046382;27;97145;-77
2023/10/11 11:53:43;;;;;;;8.30;3.35;;;;;;;26.09;41.25;100720.00;5044063;27;99629;-77
2023/10/11 11:56:10;;;;;;;12.38;4.03;;;;;;;26.24;40.98;100728.47;5043799;27;99369;-77